sensor_id;sensor_type;location;lat;lon;timestamp;P1;durP1;ratioP1;P2;durP2;ratioP2
18796;SDS011;9526;52.612;13.300;2022-10-31T00:01:15;76.63;;;45.47;;
18796;SDS011;9526;52.612;13.300;2022-10-31T00:03:41;75.25;;;47.83;;
18796;SDS011;9526;52.612;13.300;2022-10-31T00:06:05;80.53;;;49.53;;
18796;SDS011;9526;52.612;13.300;2022-10-31T00:08:29;81.30;;;47.78;;
18796;SDS011;9526;52.612;13.300;2022-10-31T00:10:53;82.03;;;48.78;;
18796;SDS011;9526;52.612;13.300;2022-10-31T00:13:18;85.75;;;49.88;;
18796;SDS011;9526;52.612;13.300;2022-10-31T00:15:42;92.90;;;52.22;;
18796;SDS011;9526;52.612;13.300;2022-10-31T00:18:06;87.40;;;49.65;;
18796;SDS011;9526;52.612;13.300;2022-10-31T00:20:31;81.90;;;47.47;;
18796;SDS011;9526;52.612;13.300;2022-10-31T00:22:56;75.47;;;46.55;;
18796;SDS011;9526;52.612;13.300;2022-10-31T00:25:21;82.05;;;47.10;;
18796;SDS011;9526;52.612;13.300;2022-10-31T00:27:44;90.55;;;51.50;;
18796;SDS011;9526;52.612;13.300;2022-10-31T00:30:10;102.32;;;53.63;;
18796;SDS011;9526;52.612;13.300;2022-10-31T00:32:34;90.63;;;50.40;;
18796;SDS011;9526;52.612;13.300;2022-10-31T00:34:58;85.57;;;50.67;;
18796;SDS011;9526;52.612;13.300;2022-10-31T00:37:22;88.32;;;51.35;;
18796;SDS011;9526;52.612;13.300;2022-10-31T00:39:46;87.78;;;50.85;;
18796;SDS011;9526;52.612;13.300;2022-10-31T00:42:11;82.55;;;48.55;;
18796;SDS011;9526;52.612;13.300;2022-10-31T00:44:36;102.25;;;54.42;;
18796;SDS011;9526;52.612;13.300;2022-10-31T00:47:02;95.15;;;53.38;;
18796;SDS011;9526;52.612;13.300;2022-10-31T00:49:26;79.28;;;47.25;;
18796;SDS011;9526;52.612;13.300;2022-10-31T00:51:49;88.18;;;47.78;;
18796;SDS011;9526;52.612;13.300;2022-10-31T00:54:13;84.30;;;50.08;;
18796;SDS011;9526;52.612;13.300;2022-10-31T00:56:37;87.07;;;48.25;;
18796;SDS011;9526;52.612;13.300;2022-10-31T00:59:02;83.85;;;48.35;;
18796;SDS011;9526;52.612;13.300;2022-10-31T01:01:25;85.53;;;46.28;;
18796;SDS011;9526;52.612;13.300;2022-10-31T01:03:50;92.20;;;51.10;;
18796;SDS011;9526;52.612;13.300;2022-10-31T01:06:14;78.35;;;48.72;;
18796;SDS011;9526;52.612;13.300;2022-10-31T01:08:39;95.03;;;51.65;;
18796;SDS011;9526;52.612;13.300;2022-10-31T01:11:06;86.85;;;49.90;;
18796;SDS011;9526;52.612;13.300;2022-10-31T01:13:36;91.00;;;53.63;;
18796;SDS011;9526;52.612;13.300;2022-10-31T01:16:00;89.70;;;51.80;;
18796;SDS011;9526;52.612;13.300;2022-10-31T01:18:26;100.35;;;54.65;;
18796;SDS011;9526;52.612;13.300;2022-10-31T01:20:58;105.72;;;56.30;;
18796;SDS011;9526;52.612;13.300;2022-10-31T01:23:23;87.75;;;48.40;;
18796;SDS011;9526;52.612;13.300;2022-10-31T01:25:46;89.35;;;47.35;;
18796;SDS011;9526;52.612;13.300;2022-10-31T01:28:10;82.55;;;48.42;;
18796;SDS011;9526;52.612;13.300;2022-10-31T01:30:34;89.45;;;51.50;;
18796;SDS011;9526;52.612;13.300;2022-10-31T01:32:57;89.65;;;50.17;;
18796;SDS011;9526;52.612;13.300;2022-10-31T01:35:21;88.90;;;50.97;;
18796;SDS011;9526;52.612;13.300;2022-10-31T01:37:46;80.03;;;46.58;;
18796;SDS011;9526;52.612;13.300;2022-10-31T01:40:10;84.18;;;48.17;;
18796;SDS011;9526;52.612;13.300;2022-10-31T01:42:34;101.63;;;53.17;;
18796;SDS011;9526;52.612;13.300;2022-10-31T01:44:59;91.85;;;50.13;;
18796;SDS011;9526;52.612;13.300;2022-10-31T01:47:31;91.90;;;51.47;;
18796;SDS011;9526;52.612;13.300;2022-10-31T01:50:03;94.20;;;49.47;;
18796;SDS011;9526;52.612;13.300;2022-10-31T01:52:42;83.60;;;49.55;;
18796;SDS011;9526;52.612;13.300;2022-10-31T01:55:11;87.90;;;49.20;;
18796;SDS011;9526;52.612;13.300;2022-10-31T01:57:41;78.30;;;46.13;;
18796;SDS011;9526;52.612;13.300;2022-10-31T02:00:11;86.80;;;48.83;;
18796;SDS011;9526;52.612;13.300;2022-10-31T02:02:36;75.88;;;46.08;;
18796;SDS011;9526;52.612;13.300;2022-10-31T02:05:01;94.10;;;50.60;;
18796;SDS011;9526;52.612;13.300;2022-10-31T02:07:31;79.18;;;47.25;;
18796;SDS011;9526;52.612;13.300;2022-10-31T02:10:02;84.88;;;48.17;;
18796;SDS011;9526;52.612;13.300;2022-10-31T02:12:26;87.95;;;47.78;;
18796;SDS011;9526;52.612;13.300;2022-10-31T02:14:53;80.55;;;45.25;;
18796;SDS011;9526;52.612;13.300;2022-10-31T02:17:16;88.18;;;48.17;;
18796;SDS011;9526;52.612;13.300;2022-10-31T02:19:41;91.35;;;49.15;;
18796;SDS011;9526;52.612;13.300;2022-10-31T02:22:16;81.07;;;45.28;;
18796;SDS011;9526;52.612;13.300;2022-10-31T02:24:58;80.57;;;45.67;;
18796;SDS011;9526;52.612;13.300;2022-10-31T02:30:55;82.63;;;45.47;;
18796;SDS011;9526;52.612;13.300;2022-10-31T02:33:29;65.90;;;41.50;;
18796;SDS011;9526;52.612;13.300;2022-10-31T02:36:03;76.88;;;45.25;;
18796;SDS011;9526;52.612;13.300;2022-10-31T02:38:38;84.38;;;46.85;;
18796;SDS011;9526;52.612;13.300;2022-10-31T02:41:27;88.47;;;48.92;;
18796;SDS011;9526;52.612;13.300;2022-10-31T02:44:05;83.03;;;46.58;;
18796;SDS011;9526;52.612;13.300;2022-10-31T02:46:36;83.30;;;45.47;;
18796;SDS011;9526;52.612;13.300;2022-10-31T02:49:10;76.00;;;46.70;;
18796;SDS011;9526;52.612;13.300;2022-10-31T02:51:43;87.68;;;47.92;;
18796;SDS011;9526;52.612;13.300;2022-10-31T02:54:16;79.32;;;45.70;;
18796;SDS011;9526;52.612;13.300;2022-10-31T02:56:46;87.35;;;46.85;;
18796;SDS011;9526;52.612;13.300;2022-10-31T02:59:11;79.88;;;47.47;;
18796;SDS011;9526;52.612;13.300;2022-10-31T03:01:46;94.15;;;49.00;;
18796;SDS011;9526;52.612;13.300;2022-10-31T03:07:20;82.90;;;47.30;;
18796;SDS011;9526;52.612;13.300;2022-10-31T03:09:55;86.35;;;46.55;;
18796;SDS011;9526;52.612;13.300;2022-10-31T03:12:34;88.63;;;45.40;;
18796;SDS011;9526;52.612;13.300;2022-10-31T03:15:12;76.45;;;44.25;;
18796;SDS011;9526;52.612;13.300;2022-10-31T03:17:47;85.55;;;47.83;;
18796;SDS011;9526;52.612;13.300;2022-10-31T03:20:19;87.03;;;48.22;;
18796;SDS011;9526;52.612;13.300;2022-10-31T03:22:52;90.57;;;47.15;;
18796;SDS011;9526;52.612;13.300;2022-10-31T03:25:18;88.57;;;46.75;;
18796;SDS011;9526;52.612;13.300;2022-10-31T03:27:42;74.38;;;44.80;;
18796;SDS011;9526;52.612;13.300;2022-10-31T03:30:07;93.95;;;47.08;;
18796;SDS011;9526;52.612;13.300;2022-10-31T03:32:48;80.65;;;44.75;;
18796;SDS011;9526;52.612;13.300;2022-10-31T03:35:17;82.13;;;45.55;;
18796;SDS011;9526;52.612;13.300;2022-10-31T03:37:43;83.45;;;46.90;;
18796;SDS011;9526;52.612;13.300;2022-10-31T03:40:10;82.35;;;46.70;;
18796;SDS011;9526;52.612;13.300;2022-10-31T03:42:37;76.95;;;43.90;;
18796;SDS011;9526;52.612;13.300;2022-10-31T03:45:04;93.95;;;47.95;;
18796;SDS011;9526;52.612;13.300;2022-10-31T03:47:34;84.43;;;46.25;;
18796;SDS011;9526;52.612;13.300;2022-10-31T03:50:02;78.88;;;45.20;;
18796;SDS011;9526;52.612;13.300;2022-10-31T03:52:27;90.30;;;47.60;;
18796;SDS011;9526;52.612;13.300;2022-10-31T03:54:56;76.90;;;42.53;;
18796;SDS011;9526;52.612;13.300;2022-10-31T03:57:24;77.47;;;42.78;;
18796;SDS011;9526;52.612;13.300;2022-10-31T03:59:53;83.80;;;45.65;;
18796;SDS011;9526;52.612;13.300;2022-10-31T04:02:22;82.32;;;45.63;;
18796;SDS011;9526;52.612;13.300;2022-10-31T04:04:52;80.72;;;43.55;;
18796;SDS011;9526;52.612;13.300;2022-10-31T04:07:17;73.75;;;42.63;;
18796;SDS011;9526;52.612;13.300;2022-10-31T04:09:44;80.00;;;43.30;;
18796;SDS011;9526;52.612;13.300;2022-10-31T04:12:09;80.85;;;44.38;;
18796;SDS011;9526;52.612;13.300;2022-10-31T04:14:40;75.40;;;43.17;;
18796;SDS011;9526;52.612;13.300;2022-10-31T04:17:08;75.00;;;41.47;;
18796;SDS011;9526;52.612;13.300;2022-10-31T04:19:39;76.60;;;42.60;;
18796;SDS011;9526;52.612;13.300;2022-10-31T04:22:03;76.93;;;43.33;;
18796;SDS011;9526;52.612;13.300;2022-10-31T04:24:28;77.03;;;42.60;;
18796;SDS011;9526;52.612;13.300;2022-10-31T04:26:52;85.78;;;45.92;;
18796;SDS011;9526;52.612;13.300;2022-10-31T04:29:17;72.95;;;42.42;;
18796;SDS011;9526;52.612;13.300;2022-10-31T04:31:41;79.85;;;44.33;;
18796;SDS011;9526;52.612;13.300;2022-10-31T04:34:04;71.60;;;40.03;;
18796;SDS011;9526;52.612;13.300;2022-10-31T04:36:28;76.63;;;40.75;;
18796;SDS011;9526;52.612;13.300;2022-10-31T04:38:52;77.50;;;41.35;;
18796;SDS011;9526;52.612;13.300;2022-10-31T04:41:29;79.30;;;43.90;;
18796;SDS011;9526;52.612;13.300;2022-10-31T04:43:55;78.65;;;42.10;;
18796;SDS011;9526;52.612;13.300;2022-10-31T04:46:21;70.20;;;38.75;;
18796;SDS011;9526;52.612;13.300;2022-10-31T04:48:44;74.72;;;40.10;;
18796;SDS011;9526;52.612;13.300;2022-10-31T04:51:09;83.75;;;42.47;;
18796;SDS011;9526;52.612;13.300;2022-10-31T04:53:33;72.95;;;40.13;;
18796;SDS011;9526;52.612;13.300;2022-10-31T04:56:15;70.07;;;39.10;;
18796;SDS011;9526;52.612;13.300;2022-10-31T04:58:43;86.13;;;43.38;;
18796;SDS011;9526;52.612;13.300;2022-10-31T05:01:06;66.78;;;38.00;;
18796;SDS011;9526;52.612;13.300;2022-10-31T05:03:30;69.63;;;37.28;;
18796;SDS011;9526;52.612;13.300;2022-10-31T05:05:54;68.85;;;39.10;;
18796;SDS011;9526;52.612;13.300;2022-10-31T05:08:18;76.35;;;41.53;;
18796;SDS011;9526;52.612;13.300;2022-10-31T05:10:44;78.05;;;40.97;;
18796;SDS011;9526;52.612;13.300;2022-10-31T05:13:08;74.38;;;40.92;;
18796;SDS011;9526;52.612;13.300;2022-10-31T05:15:52;75.93;;;38.83;;
18796;SDS011;9526;52.612;13.300;2022-10-31T05:18:16;78.38;;;40.33;;
18796;SDS011;9526;52.612;13.300;2022-10-31T05:20:58;76.78;;;40.83;;
18796;SDS011;9526;52.612;13.300;2022-10-31T05:23:35;82.57;;;41.95;;
18796;SDS011;9526;52.612;13.300;2022-10-31T05:26:02;70.47;;;38.20;;
18796;SDS011;9526;52.612;13.300;2022-10-31T05:28:27;75.45;;;39.65;;
18796;SDS011;9526;52.612;13.300;2022-10-31T05:30:53;82.30;;;40.30;;
18796;SDS011;9526;52.612;13.300;2022-10-31T05:33:16;69.78;;;38.20;;
18796;SDS011;9526;52.612;13.300;2022-10-31T05:35:58;68.97;;;39.38;;
18796;SDS011;9526;52.612;13.300;2022-10-31T05:38:32;75.30;;;40.42;;
18796;SDS011;9526;52.612;13.300;2022-10-31T05:41:04;67.82;;;38.08;;
18796;SDS011;9526;52.612;13.300;2022-10-31T05:43:28;76.75;;;40.00;;
18796;SDS011;9526;52.612;13.300;2022-10-31T05:45:55;68.75;;;38.17;;
18796;SDS011;9526;52.612;13.300;2022-10-31T05:48:54;71.70;;;37.35;;
18796;SDS011;9526;52.612;13.300;2022-10-31T05:51:41;77.70;;;38.90;;
18796;SDS011;9526;52.612;13.300;2022-10-31T05:54:05;72.50;;;38.85;;
18796;SDS011;9526;52.612;13.300;2022-10-31T05:56:35;75.35;;;40.30;;
18796;SDS011;9526;52.612;13.300;2022-10-31T05:58:59;75.45;;;36.40;;
18796;SDS011;9526;52.612;13.300;2022-10-31T06:01:24;74.90;;;38.13;;
18796;SDS011;9526;52.612;13.300;2022-10-31T06:03:49;72.88;;;37.33;;
18796;SDS011;9526;52.612;13.300;2022-10-31T06:06:16;69.85;;;37.05;;
18796;SDS011;9526;52.612;13.300;2022-10-31T06:08:40;78.28;;;38.10;;
18796;SDS011;9526;52.612;13.300;2022-10-31T06:11:13;69.70;;;37.22;;
18796;SDS011;9526;52.612;13.300;2022-10-31T06:14:09;69.30;;;36.50;;
18796;SDS011;9526;52.612;13.300;2022-10-31T06:16:55;69.43;;;37.05;;
18796;SDS011;9526;52.612;13.300;2022-10-31T06:19:36;73.10;;;36.67;;
18796;SDS011;9526;52.612;13.300;2022-10-31T06:22:01;67.10;;;36.42;;
18796;SDS011;9526;52.612;13.300;2022-10-31T06:24:26;70.18;;;37.78;;
18796;SDS011;9526;52.612;13.300;2022-10-31T06:27:13;67.75;;;36.03;;
18796;SDS011;9526;52.612;13.300;2022-10-31T06:29:37;69.85;;;34.55;;
18796;SDS011;9526;52.612;13.300;2022-10-31T06:32:06;62.95;;;33.78;;
18796;SDS011;9526;52.612;13.300;2022-10-31T06:34:36;70.20;;;33.90;;
18796;SDS011;9526;52.612;13.300;2022-10-31T06:37:01;65.68;;;35.25;;
18796;SDS011;9526;52.612;13.300;2022-10-31T06:39:25;68.05;;;34.60;;
18796;SDS011;9526;52.612;13.300;2022-10-31T06:41:49;69.65;;;34.65;;
18796;SDS011;9526;52.612;13.300;2022-10-31T06:44:15;62.03;;;33.85;;
18796;SDS011;9526;52.612;13.300;2022-10-31T06:46:38;57.90;;;32.05;;
18796;SDS011;9526;52.612;13.300;2022-10-31T06:49:29;60.45;;;32.75;;
18796;SDS011;9526;52.612;13.300;2022-10-31T06:51:56;70.82;;;34.55;;
18796;SDS011;9526;52.612;13.300;2022-10-31T06:54:20;66.88;;;34.47;;
18796;SDS011;9526;52.612;13.300;2022-10-31T06:56:45;74.57;;;36.35;;
18796;SDS011;9526;52.612;13.300;2022-10-31T06:59:09;69.15;;;35.17;;
18796;SDS011;9526;52.612;13.300;2022-10-31T07:02:02;76.57;;;37.97;;
18796;SDS011;9526;52.612;13.300;2022-10-31T07:04:29;64.95;;;33.10;;
18796;SDS011;9526;52.612;13.300;2022-10-31T07:06:52;73.38;;;35.15;;
18796;SDS011;9526;52.612;13.300;2022-10-31T07:09:16;70.60;;;36.20;;
18796;SDS011;9526;52.612;13.300;2022-10-31T07:11:40;82.57;;;38.83;;
18796;SDS011;9526;52.612;13.300;2022-10-31T07:14:04;75.43;;;35.72;;
18796;SDS011;9526;52.612;13.300;2022-10-31T07:16:28;80.53;;;35.95;;
18796;SDS011;9526;52.612;13.300;2022-10-31T07:18:51;74.88;;;32.80;;
18796;SDS011;9526;52.612;13.300;2022-10-31T07:21:16;66.47;;;33.38;;
18796;SDS011;9526;52.612;13.300;2022-10-31T07:23:40;81.70;;;35.35;;
18796;SDS011;9526;52.612;13.300;2022-10-31T07:26:35;82.80;;;34.53;;
18796;SDS011;9526;52.612;13.300;2022-10-31T07:28:59;74.20;;;32.88;;
18796;SDS011;9526;52.612;13.300;2022-10-31T07:31:23;81.22;;;33.60;;
18796;SDS011;9526;52.612;13.300;2022-10-31T07:33:51;70.38;;;31.45;;
18796;SDS011;9526;52.612;13.300;2022-10-31T07:36:21;74.55;;;33.58;;
18796;SDS011;9526;52.612;13.300;2022-10-31T07:38:47;78.97;;;32.38;;
18796;SDS011;9526;52.612;13.300;2022-10-31T07:41:12;64.65;;;31.27;;
18796;SDS011;9526;52.612;13.300;2022-10-31T07:43:38;65.38;;;30.08;;
18796;SDS011;9526;52.612;13.300;2022-10-31T07:46:24;67.47;;;29.70;;
18796;SDS011;9526;52.612;13.300;2022-10-31T07:49:26;76.75;;;31.00;;
18796;SDS011;9526;52.612;13.300;2022-10-31T07:52:10;77.85;;;31.38;;
18796;SDS011;9526;52.612;13.300;2022-10-31T07:54:52;70.13;;;30.23;;
18796;SDS011;9526;52.612;13.300;2022-10-31T07:57:17;65.22;;;29.25;;
18796;SDS011;9526;52.612;13.300;2022-10-31T07:59:45;59.78;;;28.77;;
18796;SDS011;9526;52.612;13.300;2022-10-31T08:02:11;63.95;;;28.88;;
18796;SDS011;9526;52.612;13.300;2022-10-31T08:04:53;63.40;;;28.52;;
18796;SDS011;9526;52.612;13.300;2022-10-31T08:07:41;72.35;;;30.27;;
18796;SDS011;9526;52.612;13.300;2022-10-31T08:10:11;56.50;;;28.98;;
18796;SDS011;9526;52.612;13.300;2022-10-31T08:12:35;56.00;;;27.42;;
18796;SDS011;9526;52.612;13.300;2022-10-31T08:15:01;57.70;;;26.90;;
18796;SDS011;9526;52.612;13.300;2022-10-31T08:17:25;67.30;;;27.90;;
18796;SDS011;9526;52.612;13.300;2022-10-31T08:19:51;60.30;;;27.38;;
18796;SDS011;9526;52.612;13.300;2022-10-31T08:22:19;61.40;;;28.38;;
18796;SDS011;9526;52.612;13.300;2022-10-31T08:24:45;52.17;;;26.65;;
18796;SDS011;9526;52.612;13.300;2022-10-31T08:27:08;60.33;;;28.80;;
18796;SDS011;9526;52.612;13.300;2022-10-31T08:29:33;51.35;;;26.63;;
18796;SDS011;9526;52.612;13.300;2022-10-31T08:31:58;51.58;;;26.23;;
18796;SDS011;9526;52.612;13.300;2022-10-31T08:34:40;53.53;;;26.52;;
18796;SDS011;9526;52.612;13.300;2022-10-31T08:37:22;59.75;;;27.40;;
18796;SDS011;9526;52.612;13.300;2022-10-31T08:39:50;57.22;;;27.35;;
18796;SDS011;9526;52.612;13.300;2022-10-31T08:42:14;63.70;;;28.35;;
18796;SDS011;9526;52.612;13.300;2022-10-31T08:44:38;50.83;;;26.35;;
18796;SDS011;9526;52.612;13.300;2022-10-31T08:47:02;48.22;;;24.52;;
18796;SDS011;9526;52.612;13.300;2022-10-31T08:49:28;44.65;;;23.73;;
18796;SDS011;9526;52.612;13.300;2022-10-31T08:51:51;47.50;;;22.90;;
18796;SDS011;9526;52.612;13.300;2022-10-31T08:54:15;43.72;;;21.60;;
18796;SDS011;9526;52.612;13.300;2022-10-31T08:56:54;37.92;;;21.75;;
18796;SDS011;9526;52.612;13.300;2022-10-31T08:59:28;37.42;;;21.80;;
18796;SDS011;9526;52.612;13.300;2022-10-31T09:02:14;42.47;;;21.38;;
18796;SDS011;9526;52.612;13.300;2022-10-31T09:04:38;37.15;;;20.88;;
18796;SDS011;9526;52.612;13.300;2022-10-31T09:07:02;38.28;;;19.88;;
18796;SDS011;9526;52.612;13.300;2022-10-31T09:09:42;37.08;;;19.40;;
18796;SDS011;9526;52.612;13.300;2022-10-31T09:12:07;32.40;;;20.52;;
18796;SDS011;9526;52.612;13.300;2022-10-31T09:15:00;36.85;;;20.10;;
18796;SDS011;9526;52.612;13.300;2022-10-31T09:17:38;33.88;;;19.00;;
18796;SDS011;9526;52.612;13.300;2022-10-31T09:20:22;34.58;;;19.10;;
18796;SDS011;9526;52.612;13.300;2022-10-31T09:22:46;37.90;;;19.67;;
18796;SDS011;9526;52.612;13.300;2022-10-31T09:25:09;34.25;;;18.77;;
18796;SDS011;9526;52.612;13.300;2022-10-31T09:27:36;34.53;;;18.48;;
18796;SDS011;9526;52.612;13.300;2022-10-31T09:30:00;42.55;;;20.10;;
18796;SDS011;9526;52.612;13.300;2022-10-31T09:32:24;39.97;;;18.85;;
18796;SDS011;9526;52.612;13.300;2022-10-31T09:34:47;33.63;;;19.50;;
18796;SDS011;9526;52.612;13.300;2022-10-31T09:37:14;31.90;;;19.30;;
18796;SDS011;9526;52.612;13.300;2022-10-31T09:39:37;33.58;;;19.13;;
18796;SDS011;9526;52.612;13.300;2022-10-31T09:42:17;38.70;;;19.13;;
18796;SDS011;9526;52.612;13.300;2022-10-31T09:45:18;38.42;;;18.63;;
18796;SDS011;9526;52.612;13.300;2022-10-31T09:47:55;32.47;;;18.60;;
18796;SDS011;9526;52.612;13.300;2022-10-31T09:50:56;37.10;;;18.77;;
18796;SDS011;9526;52.612;13.300;2022-10-31T09:53:37;35.35;;;20.30;;
18796;SDS011;9526;52.612;13.300;2022-10-31T09:56:11;32.70;;;18.75;;
18796;SDS011;9526;52.612;13.300;2022-10-31T09:58:41;33.15;;;20.13;;
18796;SDS011;9526;52.612;13.300;2022-10-31T10:01:09;31.63;;;19.05;;
18796;SDS011;9526;52.612;13.300;2022-10-31T10:03:52;28.83;;;17.52;;
18796;SDS011;9526;52.612;13.300;2022-10-31T10:06:49;31.33;;;19.05;;
18796;SDS011;9526;52.612;13.300;2022-10-31T10:09:46;29.38;;;18.40;;
18796;SDS011;9526;52.612;13.300;2022-10-31T10:12:37;33.97;;;18.63;;
18796;SDS011;9526;52.612;13.300;2022-10-31T10:15:34;27.23;;;17.98;;
18796;SDS011;9526;52.612;13.300;2022-10-31T10:18:25;32.05;;;18.17;;
18796;SDS011;9526;52.612;13.300;2022-10-31T10:21:03;33.33;;;18.63;;
18796;SDS011;9526;52.612;13.300;2022-10-31T10:23:49;34.38;;;17.45;;
18796;SDS011;9526;52.612;13.300;2022-10-31T10:26:28;36.53;;;19.40;;
18796;SDS011;9526;52.612;13.300;2022-10-31T10:29:01;34.83;;;18.80;;
18796;SDS011;9526;52.612;13.300;2022-10-31T10:31:37;35.70;;;18.98;;
18796;SDS011;9526;52.612;13.300;2022-10-31T10:34:06;28.33;;;18.75;;
18796;SDS011;9526;52.612;13.300;2022-10-31T10:36:40;36.15;;;19.08;;
18796;SDS011;9526;52.612;13.300;2022-10-31T10:39:11;34.90;;;19.00;;
18796;SDS011;9526;52.612;13.300;2022-10-31T10:41:40;26.80;;;18.40;;
18796;SDS011;9526;52.612;13.300;2022-10-31T10:44:23;30.10;;;18.77;;
18796;SDS011;9526;52.612;13.300;2022-10-31T10:47:05;31.73;;;19.70;;
18796;SDS011;9526;52.612;13.300;2022-10-31T10:49:49;28.98;;;18.75;;
18796;SDS011;9526;52.612;13.300;2022-10-31T10:52:27;34.67;;;18.15;;
18796;SDS011;9526;52.612;13.300;2022-10-31T10:55:09;31.98;;;17.92;;
18796;SDS011;9526;52.612;13.300;2022-10-31T10:57:44;34.75;;;19.25;;
18796;SDS011;9526;52.612;13.300;2022-10-31T11:00:19;34.50;;;18.98;;
18796;SDS011;9526;52.612;13.300;2022-10-31T11:02:45;30.13;;;18.20;;
18796;SDS011;9526;52.612;13.300;2022-10-31T11:05:13;41.10;;;19.23;;
18796;SDS011;9526;52.612;13.300;2022-10-31T11:07:51;37.33;;;19.52;;
18796;SDS011;9526;52.612;13.300;2022-10-31T11:10:15;32.35;;;20.02;;
18796;SDS011;9526;52.612;13.300;2022-10-31T11:12:39;37.33;;;20.10;;
18796;SDS011;9526;52.612;13.300;2022-10-31T11:15:06;39.83;;;20.50;;
18796;SDS011;9526;52.612;13.300;2022-10-31T11:17:40;40.72;;;22.13;;
18796;SDS011;9526;52.612;13.300;2022-10-31T11:20:20;36.05;;;21.15;;
18796;SDS011;9526;52.612;13.300;2022-10-31T11:23:00;37.67;;;20.65;;
18796;SDS011;9526;52.612;13.300;2022-10-31T11:25:27;42.10;;;21.30;;
18796;SDS011;9526;52.612;13.300;2022-10-31T11:27:58;35.50;;;21.33;;
18796;SDS011;9526;52.612;13.300;2022-10-31T11:30:22;38.42;;;21.35;;
18796;SDS011;9526;52.612;13.300;2022-10-31T11:32:47;42.55;;;22.77;;
18796;SDS011;9526;52.612;13.300;2022-10-31T11:35:15;38.58;;;23.13;;
18796;SDS011;9526;52.612;13.300;2022-10-31T11:37:42;41.17;;;22.20;;
18796;SDS011;9526;52.612;13.300;2022-10-31T11:40:15;37.03;;;21.52;;
18796;SDS011;9526;52.612;13.300;2022-10-31T11:42:41;36.60;;;21.48;;
18796;SDS011;9526;52.612;13.300;2022-10-31T11:45:07;36.30;;;22.83;;
18796;SDS011;9526;52.612;13.300;2022-10-31T11:47:40;42.67;;;22.90;;
18796;SDS011;9526;52.612;13.300;2022-10-31T11:50:09;41.45;;;24.67;;
18796;SDS011;9526;52.612;13.300;2022-10-31T11:52:36;45.15;;;23.88;;
18796;SDS011;9526;52.612;13.300;2022-10-31T11:55:13;39.70;;;24.38;;
18796;SDS011;9526;52.612;13.300;2022-10-31T11:57:42;45.78;;;25.48;;
18796;SDS011;9526;52.612;13.300;2022-10-31T12:00:20;46.33;;;25.20;;
18796;SDS011;9526;52.612;13.300;2022-10-31T12:02:46;43.92;;;25.80;;
18796;SDS011;9526;52.612;13.300;2022-10-31T12:05:11;45.00;;;27.00;;
18796;SDS011;9526;52.612;13.300;2022-10-31T12:07:44;51.05;;;27.17;;
18796;SDS011;9526;52.612;13.300;2022-10-31T12:10:09;45.83;;;27.45;;
18796;SDS011;9526;52.612;13.300;2022-10-31T12:12:44;56.42;;;30.02;;
18796;SDS011;9526;52.612;13.300;2022-10-31T12:15:29;47.13;;;28.25;;
18796;SDS011;9526;52.612;13.300;2022-10-31T12:17:58;52.90;;;27.73;;
18796;SDS011;9526;52.612;13.300;2022-10-31T12:20:51;48.47;;;27.20;;
18796;SDS011;9526;52.612;13.300;2022-10-31T12:23:28;48.15;;;27.65;;
18796;SDS011;9526;52.612;13.300;2022-10-31T12:26:08;40.33;;;26.83;;
18796;SDS011;9526;52.612;13.300;2022-10-31T12:28:46;45.78;;;26.20;;
18796;SDS011;9526;52.612;13.300;2022-10-31T12:31:33;50.95;;;27.13;;
18796;SDS011;9526;52.612;13.300;2022-10-31T12:34:24;48.35;;;26.35;;
18796;SDS011;9526;52.612;13.300;2022-10-31T12:37:19;43.70;;;26.23;;
18796;SDS011;9526;52.612;13.300;2022-10-31T12:39:59;48.38;;;27.48;;
18796;SDS011;9526;52.612;13.300;2022-10-31T12:42:44;51.20;;;27.45;;
18796;SDS011;9526;52.612;13.300;2022-10-31T12:45:24;50.83;;;28.80;;
18796;SDS011;9526;52.612;13.300;2022-10-31T12:48:07;49.95;;;27.83;;
18796;SDS011;9526;52.612;13.300;2022-10-31T12:50:57;50.53;;;30.05;;
18796;SDS011;9526;52.612;13.300;2022-10-31T12:53:36;59.22;;;27.83;;
18796;SDS011;9526;52.612;13.300;2022-10-31T12:56:19;54.47;;;30.17;;
18796;SDS011;9526;52.612;13.300;2022-10-31T12:58:57;50.83;;;28.20;;
18796;SDS011;9526;52.612;13.300;2022-10-31T13:01:28;50.38;;;29.02;;
18796;SDS011;9526;52.612;13.300;2022-10-31T13:03:57;51.13;;;29.27;;
18796;SDS011;9526;52.612;13.300;2022-10-31T13:06:30;50.97;;;29.73;;
18796;SDS011;9526;52.612;13.300;2022-10-31T13:09:05;52.63;;;28.00;;
18796;SDS011;9526;52.612;13.300;2022-10-31T13:11:38;53.45;;;28.83;;
18796;SDS011;9526;52.612;13.300;2022-10-31T13:14:07;47.25;;;29.73;;
18796;SDS011;9526;52.612;13.300;2022-10-31T13:16:39;50.58;;;27.52;;
18796;SDS011;9526;52.612;13.300;2022-10-31T13:19:08;49.03;;;29.20;;
18796;SDS011;9526;52.612;13.300;2022-10-31T13:21:40;52.25;;;29.60;;
18796;SDS011;9526;52.612;13.300;2022-10-31T13:24:12;48.55;;;28.10;;
18796;SDS011;9526;52.612;13.300;2022-10-31T13:26:42;48.03;;;28.70;;
18796;SDS011;9526;52.612;13.300;2022-10-31T13:29:14;45.15;;;28.08;;
18796;SDS011;9526;52.612;13.300;2022-10-31T13:31:45;55.47;;;30.48;;
18796;SDS011;9526;52.612;13.300;2022-10-31T13:34:10;50.95;;;32.03;;
18796;SDS011;9526;52.612;13.300;2022-10-31T13:36:48;55.58;;;31.90;;
18796;SDS011;9526;52.612;13.300;2022-10-31T13:39:21;56.75;;;33.03;;
18796;SDS011;9526;52.612;13.300;2022-10-31T13:41:57;55.45;;;32.97;;
18796;SDS011;9526;52.612;13.300;2022-10-31T13:44:27;60.05;;;33.75;;
18796;SDS011;9526;52.612;13.300;2022-10-31T13:46:58;62.35;;;33.55;;
18796;SDS011;9526;52.612;13.300;2022-10-31T13:49:26;59.95;;;34.15;;
18796;SDS011;9526;52.612;13.300;2022-10-31T13:52:14;65.15;;;35.05;;
18796;SDS011;9526;52.612;13.300;2022-10-31T13:54:46;62.63;;;36.08;;
18796;SDS011;9526;52.612;13.300;2022-10-31T13:57:19;62.47;;;35.67;;
18796;SDS011;9526;52.612;13.300;2022-10-31T13:59:55;66.30;;;36.67;;
18796;SDS011;9526;52.612;13.300;2022-10-31T14:02:33;67.80;;;36.85;;
18796;SDS011;9526;52.612;13.300;2022-10-31T14:04:59;67.20;;;37.22;;
18796;SDS011;9526;52.612;13.300;2022-10-31T14:07:29;72.57;;;37.38;;
18796;SDS011;9526;52.612;13.300;2022-10-31T14:09:55;70.35;;;38.53;;
18796;SDS011;9526;52.612;13.300;2022-10-31T14:12:24;71.32;;;37.97;;
18796;SDS011;9526;52.612;13.300;2022-10-31T14:14:57;77.38;;;39.55;;
18796;SDS011;9526;52.612;13.300;2022-10-31T14:17:28;70.47;;;37.78;;
18796;SDS011;9526;52.612;13.300;2022-10-31T14:22:57;70.65;;;37.10;;
18796;SDS011;9526;52.612;13.300;2022-10-31T14:25:24;62.42;;;36.78;;
18796;SDS011;9526;52.612;13.300;2022-10-31T14:27:52;68.47;;;37.67;;
18796;SDS011;9526;52.612;13.300;2022-10-31T14:30:17;74.85;;;40.67;;
18796;SDS011;9526;52.612;13.300;2022-10-31T14:32:44;69.03;;;38.75;;
18796;SDS011;9526;52.612;13.300;2022-10-31T14:35:17;79.95;;;40.65;;
18796;SDS011;9526;52.612;13.300;2022-10-31T14:37:51;80.82;;;41.53;;
18796;SDS011;9526;52.612;13.300;2022-10-31T14:40:48;81.10;;;41.17;;
18796;SDS011;9526;52.612;13.300;2022-10-31T14:43:46;82.07;;;42.28;;
18796;SDS011;9526;52.612;13.300;2022-10-31T14:46:37;81.18;;;42.97;;
18796;SDS011;9526;52.612;13.300;2022-10-31T14:49:15;82.13;;;42.17;;
18796;SDS011;9526;52.612;13.300;2022-10-31T14:51:49;97.78;;;44.67;;
18796;SDS011;9526;52.612;13.300;2022-10-31T14:54:15;82.95;;;43.50;;